• Join FlightAware (Why Join?)
  • Login
  • US Flag 
12:21AM EDT


 

Airport Tracker/Info


-or-


 

Live Flight TrackerFlight Track Log ✈ QXE2079 ✈ 24-Oct-2013 ✈ KALW - KSEA

Flight Track Log - Related Links

Times and Time Zones

All times are in EDT time to prevent confusion due to time zone crossing. See the QXE2079 flight status page for this flight to view local times or setup timezone preferences in your user account.

Time Position Orientation Groundspeed Altitude Reporting Facility
EDT Latitude Longitude Course Direction KTS MPH feet Rate Location/Type
05:24PM 46.3162 -118.9055 290° West  Level Estimated
05:25PM 46.3264 -119.0205 277° West  Level FlightAware Approximate
05:26PM 46.3637 -119.1233 293° West  Level Estimated
05:27PM 46.4008 -119.2261 284° West  Level Estimated
05:28PM 46.4379 -119.3292 290° West  Level Estimated
05:29PM 46.4517 -119.4437 280° West  Level FlightAware Approximate
05:30PM 46.4655 -119.5582 280° West  Level FlightAware Approximate
05:31PM 46.4791 -119.6728 280° West  Level FlightAware Approximate
05:32PM 46.4927 -119.7875 280° West  Level FlightAware Approximate
05:33PM 46.5307 -119.8834 299° West  Level Estimated
05:34PM 46.5686 -119.9794 314° West  Level Estimated
05:35PM 46.6065 -120.0756 302° West  Level Estimated
05:36PM 46.6443 -120.1719 314° West  Level Estimated
05:37PM 46.6820 -120.2683 299° West  Level Estimated
05:38PM 46.7196 -120.3649 306° West  Level Estimated
05:39PM 46.7571 -120.4616 303° West  Level Estimated
05:40PM 46.7841 -120.5657 291° West  Level FlightAware Approximate
05:41PM 46.8109 -120.6698 291° West  Level FlightAware Approximate
05:42PM 46.8494 -120.7659 North  Level Estimated
05:43PM 46.8878 -120.8621 303° West  Level Estimated
05:44PM 46.9261 -120.9585 290° West  Level Estimated
05:45PM 46.9643 -121.0549 310° West  Level Estimated
05:46PM 47.0025 -121.1516 306° West  Level Estimated
05:47PM 47.0338 -121.2534 294° West  Level FlightAware Approximate
05:48PM 47.0724 -121.3498 301° West  Level Estimated
05:49PM 47.1061 -121.4501 296° West  Level FlightAware Approximate
05:50PM 47.1451 -121.5463 315° West  Level Estimated
05:51PM 47.1839 -121.6427 306° West  Level Estimated
05:52PM 47.2227 -121.7392 306° West  Level Estimated
05:53PM 47.2614 -121.8358 306° West  Level Estimated
05:54PM 47.3000 -121.9326 306° West  Level Estimated
05:55PM 47.3385 -122.0295 306° West  Level Estimated
05:56PM 47.3769 -122.1266 306° West  Level Estimated
05:57PM 47.4153 -122.2238 306° West  Level Estimated
05:58PM 47.4333 -122.3000 306° West  Level FlightAware Approximate
05:59PM 47.4499 -122.3118 306° West  Level Estimated
06:00PM 47.4499 -122.3118 306° West  Level Estimated
06:01PM 47.4499 -122.3118 306° West  Level Estimated
06:02PM 47.4499 -122.3118 306° West  Level Estimated
06:03PM 47.4499 -122.3118 306° West  Level Estimated
06:04PM 47.4499 -122.3118 306° West  Level Estimated
06:05PM 47.4499 -122.3118 306° West  Level Estimated
06:06PM 47.4499 -122.3118 306° West  Level Estimated